Time;durP1;ratioP1;P1;durP2;ratioP2;P2;SDS_P1;SDS_P2;PMS_P1;PMS_P2;Temp;Humidity;BMP_temperature;BMP_pressure;BME280_temperature;BME280_humidity;BME280_pressure;Samples;Min_cycle;Max_cycle;Signal;HPM_P1;HPM_P2
2021/04/01 00:02:27;;;;;;;14.43;11.82;;;12.00;89.00;;;;;;5054650;28;20264;-37
2021/04/01 00:04:54;;;;;;;20.05;11.98;;;12.00;89.30;;;;;;5054719;28;20342;-38
2021/04/01 00:07:22;;;;;;;14.13;10.73;;;11.90;89.60;;;;;;5054676;28;20667;-38
2021/04/01 00:09:49;;;;;;;20.75;13.10;;;11.90;90.00;;;;;;5054639;28;20204;-37
2021/04/01 00:12:17;;;;;;;16.48;11.20;;;11.90;90.20;;;;;;5054444;28;20682;-37
2021/04/01 00:14:45;;;;;;;15.25;11.30;;;11.80;90.30;;;;;;5054525;28;20273;-38
2021/04/01 00:17:13;;;;;;;20.05;13.38;;;11.80;90.50;;;;;;5054326;28;20208;-38
2021/04/01 00:19:40;;;;;;;14.15;11.45;;;11.80;90.60;;;;;;5054279;28;20658;-40
2021/04/01 00:22:07;;;;;;;15.52;10.70;;;11.70;90.70;;;;;;5054207;28;20243;-37
2021/04/01 00:24:34;;;;;;;16.02;11.27;;;11.70;90.90;;;;;;5054268;28;20602;-38
2021/04/01 00:27:02;;;;;;;16.38;11.90;;;11.70;91.00;;;;;;5054212;28;20210;-37
2021/04/01 00:29:29;;;;;;;14.55;11.27;;;11.70;91.20;;;;;;5054149;28;20295;-37
2021/04/01 00:31:57;;;;;;;18.92;11.43;;;11.70;91.30;;;;;;5054140;28;20204;-37
2021/04/01 00:34:24;;;;;;;17.45;11.93;;;11.70;91.40;;;;;;5054119;28;20686;-37
2021/04/01 00:36:51;;;;;;;14.85;10.20;;;11.70;91.50;;;;;;5054134;28;20615;-37
2021/04/01 00:39:18;;;;;;;16.05;11.55;;;11.60;91.60;;;;;;5054001;28;20208;-38
2021/04/01 00:41:45;;;;;;;15.10;11.00;;;11.60;91.80;;;;;;5053992;28;20262;-38
2021/04/01 00:44:15;;;;;;;15.55;10.60;;;11.60;91.90;;;;;;5053828;28;20200;-38
2021/04/01 00:46:46;;;;;;;15.02;10.20;;;11.50;92.10;;;;;;5053802;28;20266;-38
2021/04/01 00:49:14;;;;;;;17.33;11.43;;;11.50;92.20;;;;;;5053868;28;20690;-37
2021/04/01 00:51:41;;;;;;;16.73;11.10;;;11.50;92.40;;;;;;5053634;28;20254;-37
2021/04/01 00:54:10;;;;;;;18.63;11.32;;;11.40;92.60;;;;;;5053722;28;20236;-38
2021/04/01 00:56:37;;;;;;;17.65;11.27;;;11.40;92.70;;;;;;5053889;28;20212;-38
2021/04/01 00:59:06;;;;;;;18.95;10.57;;;11.30;92.90;;;;;;5053685;28;20303;-38
2021/04/01 01:01:42;;;;;;;14.60;10.65;;;11.30;93.00;;;;;;5053662;28;20578;-38
2021/04/01 01:04:10;;;;;;;14.25;10.90;;;11.30;93.10;;;;;;5053799;28;20211;-38
2021/04/01 01:06:38;;;;;;;16.10;10.80;;;11.30;93.20;;;;;;5053598;28;20232;-38
2021/04/01 01:09:06;;;;;;;18.77;11.38;;;11.30;93.30;;;;;;5053583;28;20303;-39
2021/04/01 01:11:34;;;;;;;14.02;10.90;;;11.20;93.40;;;;;;5053350;28;20226;-39
2021/04/01 01:14:01;;;;;;;18.08;11.63;;;11.20;93.50;;;;;;5053035;28;20309;-38
2021/04/01 01:16:29;;;;;;;17.45;11.15;;;11.20;93.70;;;;;;5053438;28;20295;-39
2021/04/01 01:18:56;;;;;;;12.35;9.98;;;11.20;93.80;;;;;;5053165;28;20302;-39
2021/04/01 01:21:23;;;;;;;17.23;11.77;;;11.20;93.90;;;;;;5053004;28;20654;-39
2021/04/01 01:23:51;;;;;;;15.07;9.80;;;11.10;94.00;;;;;;5053198;28;20706;-39
2021/04/01 01:26:19;;;;;;;16.50;11.23;;;11.10;94.10;;;;;;5052977;28;20243;-39
2021/04/01 01:28:47;;;;;;;16.20;10.70;;;11.10;94.20;;;;;;5053002;28;20208;-39
2021/04/01 01:31:15;;;;;;;13.73;10.63;;;11.00;94.30;;;;;;5053230;28;20207;-38
2021/04/01 01:33:42;;;;;;;15.68;10.55;;;11.00;94.40;;;;;;5053079;28;20322;-38
2021/04/01 01:36:10;;;;;;;14.60;9.15;;;11.00;94.50;;;;;;5052913;28;20307;-39
2021/04/01 01:38:37;;;;;;;12.15;10.07;;;11.00;94.50;;;;;;5052700;28;20572;-42
2021/04/01 01:41:05;;;;;;;13.68;10.20;;;11.00;94.60;;;;;;5052753;28;20705;-39
2021/04/01 01:43:34;;;;;;;16.58;10.05;;;11.00;94.70;;;;;;5053014;28;20308;-39
2021/04/01 01:46:01;;;;;;;12.88;9.60;;;10.90;94.80;;;;;;5052764;28;20761;-40
2021/04/01 01:48:28;;;;;;;14.98;9.90;;;10.90;94.90;;;;;;5052724;28;20215;-39
2021/04/01 01:50:58;;;;;;;13.02;9.90;;;10.90;95.00;;;;;;5052726;28;20204;-39
2021/04/01 01:53:26;;;;;;;21.30;11.15;;;10.80;95.10;;;;;;5052484;28;20223;-40
2021/04/01 01:55:53;;;;;;;17.02;10.57;;;10.80;95.20;;;;;;5052811;28;20595;-40
2021/04/01 01:58:21;;;;;;;13.63;9.40;;;10.80;95.30;;;;;;5052689;28;20705;-40
2021/04/01 02:00:53;;;;;;;14.77;10.10;;;10.70;95.30;;;;;;5052642;28;20224;-39
2021/04/01 02:03:20;;;;;;;12.50;10.30;;;10.70;95.40;;;;;;5052516;28;20227;-40
2021/04/01 02:05:47;;;;;;;15.35;10.48;;;10.70;95.50;;;;;;5052330;28;20252;-40
2021/04/01 02:08:14;;;;;;;13.68;9.73;;;10.60;95.60;;;;;;5052665;28;20251;-40
2021/04/01 02:10:43;;;;;;;14.30;9.60;;;10.60;95.70;;;;;;5052444;28;20637;-40
2021/04/01 02:13:12;;;;;;;13.88;9.23;;;10.60;95.70;;;;;;5052234;28;20231;-39
2021/04/01 02:15:41;;;;;;;12.48;9.20;;;10.50;95.80;;;;;;5052367;28;20303;-39
2021/04/01 02:18:11;;;;;;;12.38;9.48;;;10.50;95.90;;;;;;5052173;28;20212;-39
2021/04/01 02:20:40;;;;;;;11.82;9.20;;;10.50;95.90;;;;;;5052270;28;20204;-39
2021/04/01 02:23:09;;;;;;;12.40;9.48;;;10.50;96.00;;;;;;5051825;28;20244;-39
2021/04/01 02:25:36;;;;;;;18.58;9.63;;;10.50;96.00;;;;;;5051543;28;20218;-39
2021/04/01 02:28:04;;;;;;;15.45;9.15;;;10.50;96.00;;;;;;5052021;28;20310;-40
2021/04/01 02:30:31;;;;;;;14.25;9.77;;;10.50;96.10;;;;;;5052043;28;20277;-40
2021/04/01 02:32:58;;;;;;;14.32;10.00;;;10.40;96.10;;;;;;5051943;28;20311;-39
2021/04/01 02:35:26;;;;;;;18.48;9.73;;;10.40;96.20;;;;;;5051906;28;20627;-40
2021/04/01 02:37:53;;;;;;;14.52;10.02;;;10.40;96.30;;;;;;5052058;28;20298;-40
2021/04/01 02:40:21;;;;;;;11.45;9.45;;;10.40;96.40;;;;;;5052038;28;20274;-40
2021/04/01 02:42:48;;;;;;;12.13;8.77;;;10.40;96.40;;;;;;5051876;28;20287;-40
2021/04/01 02:45:15;;;;;;;15.25;10.18;;;10.30;96.40;;;;;;5051938;28;20294;-40
2021/04/01 02:47:42;;;;;;;12.88;10.13;;;10.30;96.50;;;;;;5051588;28;20266;-40
2021/04/01 02:50:11;;;;;;;11.82;9.93;;;10.30;96.60;;;;;;5052179;28;20330;-39
2021/04/01 02:52:39;;;;;;;12.00;9.32;;;10.30;96.60;;;;;;5051717;28;20207;-39
2021/04/01 02:55:09;;;;;;;13.68;9.07;;;10.30;96.60;;;;;;5051621;28;20742;-40
2021/04/01 02:57:36;;;;;;;17.40;10.20;;;10.30;96.70;;;;;;5051474;28;20203;-40
2021/04/01 03:00:06;;;;;;;15.52;9.63;;;10.20;96.80;;;;;;5052641;28;20418;-39
2021/04/01 03:02:33;;;;;;;12.93;9.63;;;10.20;96.90;;;;;;5053482;28;20258;-39
2021/04/01 03:05:05;;;;;;;11.93;9.13;;;10.10;97.00;;;;;;5053802;28;20208;-40
2021/04/01 03:07:32;;;;;;;13.75;9.65;;;10.10;97.00;;;;;;5051154;28;20303;-40
2021/04/01 03:10:00;;;;;;;15.85;9.05;;;10.00;97.10;;;;;;5049716;28;20264;-40
2021/04/01 03:12:27;;;;;;;12.80;8.93;;;10.00;97.20;;;;;;5051395;28;20732;-39
2021/04/01 03:14:54;;;;;;;18.25;9.32;;;10.00;97.30;;;;;;5051330;28;20214;-39
2021/04/01 03:17:21;;;;;;;10.70;8.45;;;9.90;97.30;;;;;;5051875;28;20239;-39
2021/04/01 03:19:48;;;;;;;11.32;8.07;;;9.90;97.30;;;;;;5051668;28;20234;-40
2021/04/01 03:22:15;;;;;;;9.68;8.68;;;9.90;97.30;;;;;;5051320;28;20244;-40
2021/04/01 03:24:41;;;;;;;15.88;9.80;;;9.90;97.30;;;;;;5051315;28;20753;-39
2021/04/01 03:27:09;;;;;;;11.57;9.30;;;9.90;97.40;;;;;;5051157;28;20243;-39
2021/04/01 03:29:36;;;;;;;15.73;9.65;;;9.80;97.40;;;;;;5051106;28;20294;-39
2021/04/01 03:32:04;;;;;;;11.90;9.25;;;9.80;97.40;;;;;;5051178;28;20214;-39
2021/04/01 03:34:31;;;;;;;13.77;9.48;;;9.80;97.40;;;;;;5051298;28;20263;-39
2021/04/01 03:36:58;;;;;;;16.75;9.65;;;9.80;97.50;;;;;;5051533;28;20326;-39
2021/04/01 03:39:25;;;;;;;12.68;8.07;;;9.80;97.50;;;;;;5055017;28;20294;-39
2021/04/01 03:41:52;;;;;;;13.77;9.20;;;9.80;97.50;;;;;;5054978;28;20682;-39
2021/04/01 03:44:20;;;;;;;12.50;8.82;;;9.70;97.50;;;;;;5055235;28;20291;-39
2021/04/01 03:46:47;;;;;;;9.15;8.10;;;9.70;97.50;;;;;;5055135;28;20303;-39
2021/04/01 03:49:13;;;;;;;12.80;8.63;;;9.70;97.60;;;;;;5055144;28;20299;-39
2021/04/01 03:51:40;;;;;;;15.73;9.02;;;9.70;97.60;;;;;;5054989;28;20243;-39
2021/04/01 03:54:08;;;;;;;18.80;9.55;;;9.70;97.60;;;;;;5054337;28;20223;-39
2021/04/01 03:56:35;;;;;;;12.15;8.98;;;9.70;97.60;;;;;;5054646;28;20251;-39
2021/04/01 03:59:05;;;;;;;12.68;8.40;;;9.60;97.70;;;;;;5054721;28;20550;-38
2021/04/01 04:02:01;;;;;;;12.85;8.77;;;9.60;97.70;;;;;;5054645;28;20212;-39
2021/04/01 04:04:45;;;;;;;12.48;8.73;;;9.60;97.70;;;;;;5054317;28;20253;-40
2021/04/01 04:12:48;;;;;;;15.57;8.75;;;9.50;97.70;;;;;;5054616;28;20291;-40
2021/04/01 04:15:16;;;;;;;12.73;9.05;;;9.50;97.70;;;;;;5054302;28;20215;-39
2021/04/01 04:17:44;;;;;;;10.90;8.85;;;9.50;97.80;;;;;;5054254;28;20212;-39
2021/04/01 04:20:13;;;;;;;16.00;9.95;;;9.50;97.80;;;;;;5054352;28;20212;-39
2021/04/01 04:22:40;;;;;;;13.10;9.10;;;9.50;97.90;;;;;;5054396;28;20319;-39
2021/04/01 04:25:09;;;;;;;15.57;8.30;;;9.40;97.90;;;;;;5054576;28;20295;-39
2021/04/01 04:30:24;;;;;;;15.30;9.80;;;9.40;98.00;;;;;;5054419;28;20262;-38
2021/04/01 04:32:52;;;;;;;14.30;9.25;;;9.50;98.00;;;;;;5054087;28;20204;-39
2021/04/01 04:35:20;;;;;;;16.13;9.02;;;9.40;98.00;;;;;;5054167;28;20204;-39
2021/04/01 04:37:47;;;;;;;15.57;8.98;;;9.40;98.10;;;;;;5054054;28;20330;-39
2021/04/01 04:40:15;;;;;;;16.27;9.30;;;9.40;98.10;;;;;;5054017;28;20243;-39
2021/04/01 04:42:42;;;;;;;13.50;8.60;;;9.40;98.10;;;;;;5053939;28;20244;-40
2021/04/01 04:45:09;;;;;;;14.40;8.02;;;9.40;98.10;;;;;;5054204;28;20298;-39
2021/04/01 04:47:37;;;;;;;16.92;8.75;;;9.40;98.20;;;;;;5053953;28;20212;-40
2021/04/01 04:50:07;;;;;;;11.60;8.55;;;9.40;98.20;;;;;;5053083;28;20211;-40
2021/04/01 04:52:35;;;;;;;12.65;9.20;;;9.30;98.30;;;;;;5053730;28;20319;-40
2021/04/01 04:55:04;;;;;;;12.90;8.80;;;9.30;98.30;;;;;;5053896;28;20243;-39
2021/04/01 04:57:36;;;;;;;17.08;8.77;;;9.30;98.30;;;;;;5053801;28;20246;-38
2021/04/01 05:05:56;;;;;;;17.10;9.20;;;9.40;98.30;;;;;;4972776;28;20215;-39
2021/04/01 05:08:23;;;;;;;17.38;9.10;;;9.40;98.30;;;;;;5021810;28;20214;-39
2021/04/01 05:10:51;;;;;;;15.80;9.50;;;9.50;98.30;;;;;;5053348;28;20216;-39
2021/04/01 05:13:18;;;;;;;15.35;7.93;;;9.50;98.20;;;;;;5053251;28;20228;-39
2021/04/01 05:15:49;;;;;;;14.15;8.38;;;9.60;98.20;;;;;;5053064;28;20302;-39
2021/04/01 05:18:22;;;;;;;19.45;8.68;;;9.60;98.10;;;;;;5053650;28;20216;-39
2021/04/01 05:20:51;;;;;;;13.50;8.05;;;9.70;98.10;;;;;;5053493;28;20235;-39
2021/04/01 05:23:40;;;;;;;11.77;7.63;;;9.80;98.00;;;;;;5053063;28;20236;-40
2021/04/01 05:28:52;;;;;;;9.93;7.35;;;9.90;97.80;;;;;;5053341;28;20269;-40
2021/04/01 05:31:29;;;;;;;13.07;7.47;;;10.00;97.80;;;;;;5053286;28;20212;-40
2021/04/01 05:33:58;;;;;;;17.48;9.48;;;10.00;97.70;;;;;;5053070;28;20319;-40
2021/04/01 05:36:26;;;;;;;12.15;8.95;;;10.10;97.60;;;;;;5052954;28;20236;-40
2021/04/01 05:38:55;;;;;;;12.15;9.73;;;10.20;97.40;;;;;;5053182;28;20247;-40
2021/04/01 05:41:24;;;;;;;13.73;8.57;;;10.30;97.30;;;;;;5052969;28;20642;-39
2021/04/01 05:43:53;;;;;;;9.55;7.43;;;10.40;97.20;;;;;;5052827;28;20307;-39
2021/04/01 05:46:25;;;;;;;11.38;8.10;;;10.40;97.10;;;;;;5052768;28;20609;-39
2021/04/01 05:49:01;;;;;;;16.10;7.82;;;10.50;96.90;;;;;;5052802;28;20215;-40
2021/04/01 06:03:18;;;;;;;14.45;7.38;;;11.30;95.70;;;;;;4978439;28;20214;-39
2021/04/01 06:05:49;;;;;;;13.23;7.30;;;11.50;95.50;;;;;;5053441;28;20207;-40
2021/04/01 06:08:19;;;;;;;12.10;8.32;;;11.60;95.20;;;;;;5052658;28;20216;-39
2021/04/01 06:10:49;;;;;;;13.85;7.40;;;11.80;95.00;;;;;;5052188;28;20294;-40
2021/04/01 06:13:18;;;;;;;12.57;8.30;;;12.00;94.70;;;;;;5052081;28;20319;-40
2021/04/01 06:15:47;;;;;;;10.10;7.85;;;12.10;94.40;;;;;;5052013;28;20303;-40
2021/04/01 06:18:15;;;;;;;16.50;7.50;;;12.30;94.10;;;;;;5052044;28;20303;-40
2021/04/01 06:20:45;;;;;;;12.07;8.15;;;12.40;93.80;;;;;;5051848;28;20670;-40
2021/04/01 06:23:14;;;;;;;14.70;7.43;;;12.40;93.60;;;;;;5051998;28;20334;-39
2021/04/01 06:25:41;;;;;;;10.80;7.60;;;12.50;93.50;;;;;;5051799;28;20258;-40
2021/04/01 06:28:13;;;;;;;18.27;10.23;;;12.60;93.30;;;;;;5051949;28;20680;-40
2021/04/01 06:30:50;;;;;;;16.17;7.30;;;12.70;93.00;;;;;;5052242;28;20227;-39
2021/04/01 06:33:21;;;;;;;14.00;7.72;;;12.80;92.80;;;;;;5051801;28;20250;-40
2021/04/01 06:35:52;;;;;;;13.98;7.75;;;12.90;92.70;;;;;;5051965;28;20514;-41
2021/04/01 06:38:21;;;;;;;11.18;6.57;;;13.00;92.50;;;;;;5051704;28;20287;-40
2021/04/01 06:40:50;;;;;;;12.43;7.18;;;13.00;92.30;;;;;;5051716;28;20567;-39
2021/04/01 06:43:59;;;;;;;9.40;6.65;;;13.10;92.20;;;;;;5051287;28;20256;-39
2021/04/01 06:46:30;;;;;;;11.45;7.50;;;13.20;91.90;;;;;;5048887;28;20212;-39
2021/04/01 06:49:24;;;;;;;10.60;7.38;;;13.20;91.90;;;;;;5051484;28;20204;-39
2021/04/01 06:51:58;;;;;;;23.08;13.60;;;13.30;91.70;;;;;;5051629;28;20214;-39
2021/04/01 06:54:30;;;;;;;16.77;6.88;;;13.40;91.60;;;;;;5051707;28;20349;-39
2021/04/01 06:57:09;;;;;;;15.10;7.63;;;13.50;91.40;;;;;;5051645;28;20626;-39
2021/04/01 06:59:46;;;;;;;11.95;7.15;;;13.70;91.10;;;;;;5037292;28;20212;-39
2021/04/01 07:02:25;;;;;;;7.88;6.47;;;13.70;90.90;;;;;;5031650;28;20212;-39
2021/04/01 07:04:58;;;;;;;10.75;6.70;;;13.80;90.70;;;;;;5031735;28;20291;-39
2021/04/01 07:07:28;;;;;;;12.13;7.38;;;13.90;90.50;;;;;;5032089;28;20232;-39
2021/04/01 07:10:08;;;;;;;11.98;6.75;;;14.00;90.20;;;;;;5031645;28;20272;-39
2021/04/01 07:12:39;;;;;;;12.95;6.85;;;14.00;90.00;;;;;;5032915;28;20220;-39
2021/04/01 07:15:11;;;;;;;13.95;6.05;;;14.10;89.50;;;;;;5035530;28;20351;-38
2021/04/01 07:17:41;;;;;;;11.73;6.80;;;14.20;89.20;;;;;;5035538;28;20243;-37
2021/04/01 07:20:28;;;;;;;8.68;6.47;;;14.20;88.80;;;;;;5035600;28;20215;-40
2021/04/01 07:23:20;;;;;;;11.10;6.45;;;14.30;88.40;;;;;;5034958;28;20279;-40
2021/04/01 07:34:37;;;;;;;14.45;6.13;;;14.80;86.50;;;;;;5012278;28;20656;-40
2021/04/01 07:46:08;;;;;;;12.70;6.50;;;15.40;84.20;;;;;;5034713;28;20307;-40
2021/04/01 07:48:42;;;;;;;11.18;6.82;;;15.60;83.50;;;;;;5034947;28;20291;-39
2021/04/01 07:51:23;;;;;;;9.63;6.53;;;15.70;82.70;;;;;;5034804;28;20240;-40
2021/04/01 07:53:54;;;;;;;9.27;7.00;;;15.90;82.30;;;;;;5034206;28;20319;-40
2021/04/01 07:57:56;;;;;;;13.40;6.88;;;16.00;81.60;;;;;;4954320;29;20266;-40
2021/04/01 08:00:28;;;;;;;13.55;6.55;;;16.20;80.50;;;;;;4956140;28;20310;-40
2021/04/01 08:03:06;;;;;;;9.98;7.35;;;16.40;80.20;;;;;;5034761;28;20212;-38
2021/04/01 08:05:35;;;;;;;9.73;6.60;;;16.40;79.30;;;;;;5034712;28;20307;-39
2021/04/01 08:08:09;;;;;;;11.88;6.63;;;16.50;78.70;;;;;;5034540;28;20286;-40
2021/04/01 08:10:40;;;;;;;12.18;6.18;;;16.60;78.40;;;;;;5034309;28;20670;-40
2021/04/01 08:13:12;;;;;;;8.68;6.10;;;16.70;77.60;;;;;;5034548;28;20256;-39
2021/04/01 08:15:44;;;;;;;10.23;6.60;;;16.80;77.30;;;;;;5034332;28;20212;-39
2021/04/01 08:18:23;;;;;;;11.65;7.15;;;16.90;76.90;;;;;;5034531;28;20254;-39
2021/04/01 08:20:55;;;;;;;12.82;7.60;;;17.00;76.10;;;;;;5034458;28;20282;-38
2021/04/01 08:23:44;;;;;;;12.35;7.90;;;17.20;75.60;;;;;;5033004;28;20200;-39
2021/04/01 08:26:44;;;;;;;13.73;7.70;;;17.30;75.00;;;;;;5033977;28;20219;-39
2021/04/01 08:36:05;;;;;;;10.68;7.47;;;17.70;73.60;;;;;;5015140;28;20227;-40
2021/04/01 08:38:53;;;;;;;15.15;8.30;;;17.80;73.10;;;;;;5034329;28;20665;-39
2021/04/01 08:42:28;;;;;;;13.15;8.88;;;17.90;72.90;;;;;;5033969;28;20214;-39
2021/04/01 08:45:38;;;;;;;16.65;9.88;;;17.90;72.50;;;;;;5035474;28;20214;-40
2021/04/01 08:48:34;;;;;;;11.30;8.02;;;18.00;72.50;;;;;;5034309;28;20204;-40
2021/04/01 08:51:42;;;;;;;17.60;9.02;;;18.10;72.30;;;;;;5035606;28;20216;-40
2021/04/01 08:54:14;;;;;;;14.50;9.43;;;18.20;72.00;;;;;;5033540;28;20231;-40
2021/04/01 08:56:56;;;;;;;16.02;8.85;;;18.30;71.70;;;;;;5034263;28;20240;-39
2021/04/01 08:59:25;;;;;;;15.85;9.30;;;18.40;71.50;;;;;;5034034;28;20208;-40
2021/04/01 09:01:55;;;;;;;18.25;9.98;;;18.40;71.50;;;;;;5033758;28;20216;-40
2021/04/01 09:04:24;;;;;;;15.05;10.07;;;18.50;71.30;;;;;;5033655;28;20232;-40
2021/04/01 09:06:54;;;;;;;12.80;9.40;;;18.60;71.00;;;;;;5033656;28;20267;-40
2021/04/01 09:09:28;;;;;;;13.20;8.93;;;18.70;70.70;;;;;;5033573;28;20262;-37
2021/04/01 09:12:05;;;;;;;19.38;9.05;;;18.80;70.40;;;;;;5033837;28;20212;-40
2021/04/01 09:14:34;;;;;;;16.30;10.13;;;18.90;70.30;;;;;;5033782;28;20224;-39
2021/04/01 09:17:06;;;;;;;19.20;9.10;;;19.00;70.20;;;;;;5033239;28;20758;-39
2021/04/01 09:19:35;;;;;;;14.20;8.55;;;19.00;70.10;;;;;;5033643;28;20232;-40
2021/04/01 09:22:02;;;;;;;15.65;9.63;;;19.10;70.00;;;;;;5033312;28;20323;-48
2021/04/01 09:24:33;;;;;;;17.70;10.10;;;19.20;70.00;;;;;;5033465;28;20304;-40
2021/04/01 09:27:00;;;;;;;17.88;8.90;;;19.20;69.60;;;;;;5033395;28;20248;-41
2021/04/01 09:29:38;;;;;;;15.40;9.13;;;19.30;69.30;;;;;;5033130;28;20308;-39
2021/04/01 09:32:07;;;;;;;17.13;9.55;;;19.40;69.00;;;;;;5033466;28;20212;-39
2021/04/01 09:34:36;;;;;;;16.27;8.52;;;19.50;68.90;;;;;;5033194;28;20224;-39
2021/04/01 09:37:11;;;;;;;15.05;8.85;;;19.60;68.50;;;;;;5032652;28;20208;-38
2021/04/01 09:39:39;;;;;;;14.18;8.50;;;19.70;68.20;;;;;;5032450;28;20209;-39
2021/04/01 09:42:09;;;;;;;14.45;8.60;;;19.70;67.90;;;;;;5032780;28;20267;-39
2021/04/01 09:44:48;;;;;;;13.23;8.68;;;19.80;67.60;;;;;;5033142;28;20232;-39
2021/04/01 09:47:22;;;;;;;14.80;9.98;;;19.80;67.50;;;;;;5032818;28;20223;-39
2021/04/01 09:49:55;;;;;;;14.27;8.02;;;19.80;67.60;;;;;;5032884;28;20251;-39
2021/04/01 09:52:27;;;;;;;12.45;9.02;;;19.80;67.50;;;;;;5032748;28;20212;-39
2021/04/01 09:54:57;;;;;;;16.20;9.50;;;19.90;67.50;;;;;;5032900;28;20240;-39
2021/04/01 09:57:39;;;;;;;19.50;9.52;;;20.00;67.20;;;;;;5032668;28;20648;-39
2021/04/01 10:00:27;;;;;;;18.83;8.93;;;20.20;66.80;;;;;;5032797;28;20248;-39
2021/04/01 10:03:15;;;;;;;16.27;10.52;;;20.30;66.30;;;;;;5032728;28;20301;-39
2021/04/01 10:05:44;;;;;;;14.35;8.13;;;20.50;65.90;;;;;;5032898;28;20247;-39
2021/04/01 10:08:12;;;;;;;14.48;8.98;;;20.50;65.20;;;;;;5032638;28;20204;-38
2021/04/01 10:10:42;;;;;;;14.15;7.95;;;20.60;65.10;;;;;;5032380;28;20307;-39
2021/04/01 10:13:20;;;;;;;14.73;8.20;;;20.70;65.00;;;;;;5032454;28;20259;-39
2021/04/01 10:15:50;;;;;;;14.88;7.93;;;20.70;64.50;;;;;;5032444;28;20770;-39
2021/04/01 10:18:23;;;;;;;11.27;7.30;;;20.80;64.50;;;;;;5032904;28;20236;-39
2021/04/01 10:20:59;;;;;;;13.32;7.63;;;20.80;64.10;;;;;;5032667;28;20303;-39
2021/04/01 10:23:26;;;;;;;13.38;7.78;;;21.00;63.60;;;;;;5032185;28;20740;-40
2021/04/01 10:26:06;;;;;;;12.38;9.00;;;21.10;63.10;;;;;;5032285;28;20204;-40
2021/04/01 10:28:44;;;;;;;14.10;8.77;;;21.20;62.30;;;;;;5032255;28;20299;-40
2021/04/01 10:31:16;;;;;;;12.48;7.10;;;21.20;62.50;;;;;;5032114;28;20232;-40
2021/04/01 10:34:05;;;;;;;13.98;8.15;;;21.40;62.20;;;;;;5032195;28;20295;-41
2021/04/01 10:36:33;;;;;;;14.75;7.75;;;21.50;61.50;;;;;;5032402;28;20235;-39
2021/04/01 10:39:09;;;;;;;14.13;7.65;;;21.50;61.50;;;;;;5032043;28;20209;-39
2021/04/01 10:41:50;;;;;;;16.58;8.20;;;21.70;61.50;;;;;;5032809;28;20215;-40
2021/04/01 10:44:18;;;;;;;19.75;8.85;;;21.90;60.90;;;;;;5032306;28;20315;-40
2021/04/01 10:46:51;;;;;;;12.30;8.68;;;22.10;60.90;;;;;;5031257;28;20299;-40
2021/04/01 10:49:22;;;;;;;13.93;7.82;;;22.20;59.80;;;;;;5031996;28;20501;-40
2021/04/01 10:51:51;;;;;;;12.05;6.72;;;22.30;58.70;;;;;;5032231;28;20222;-40
2021/04/01 10:54:23;;;;;;;20.05;8.68;;;22.40;58.00;;;;;;5032042;28;20362;-40
2021/04/01 10:56:54;;;;;;;11.18;7.38;;;22.50;58.40;;;;;;5031857;28;20208;-40
2021/04/01 10:59:39;;;;;;;12.75;7.03;;;22.60;57.40;;;;;;5032087;28;20680;-40
2021/04/01 11:02:16;;;;;;;15.10;8.25;;;22.70;56.70;;;;;;5032171;28;20691;-41
2021/04/01 11:04:46;;;;;;;15.07;8.32;;;22.90;56.20;;;;;;5031954;28;20675;-41
2021/04/01 11:07:13;;;;;;;10.63;7.65;;;23.00;56.10;;;;;;5031988;28;20209;-41
2021/04/01 11:09:47;;;;;;;13.35;7.57;;;23.20;55.70;;;;;;5031655;28;20638;-41
2021/04/01 11:12:17;;;;;;;13.63;8.43;;;23.40;55.40;;;;;;5031848;28;20346;-40
2021/04/01 11:14:47;;;;;;;13.57;8.38;;;23.50;54.90;;;;;;5031927;28;20224;-41
2021/04/01 11:17:16;;;;;;;10.65;6.63;;;23.70;54.60;;;;;;5031476;28;20299;-41
2021/04/01 11:19:46;;;;;;;12.80;8.13;;;23.80;53.60;;;;;;5031662;28;20216;-40
2021/04/01 11:22:15;;;;;;;13.40;7.55;;;23.90;53.30;;;;;;5031264;28;20241;-41
2021/04/01 11:24:43;;;;;;;12.85;7.90;;;23.80;53.20;;;;;;5031545;28;20433;-40
2021/04/01 11:27:12;;;;;;;12.13;7.28;;;23.80;53.20;;;;;;5031664;28;20209;-40
2021/04/01 11:29:41;;;;;;;12.27;6.78;;;23.90;53.30;;;;;;5031470;28;20209;-40
2021/04/01 11:32:16;;;;;;;12.45;7.38;;;23.90;53.00;;;;;;5031439;28;20543;-40
2021/04/01 11:34:44;;;;;;;12.43;6.70;;;23.80;52.90;;;;;;5031291;28;20259;-41
2021/04/01 11:37:13;;;;;;;9.90;7.50;;;23.70;53.20;;;;;;5031291;28;20252;-40
2021/04/01 11:39:40;;;;;;;12.13;7.72;;;23.50;53.80;;;;;;5031288;28;20574;-41
2021/04/01 11:42:12;;;;;;;13.07;6.63;;;23.50;53.50;;;;;;5031421;28;20240;-40
2021/04/01 11:44:41;;;;;;;10.90;7.00;;;23.50;53.40;;;;;;5031401;28;20282;-39
2021/04/01 11:47:19;;;;;;;12.43;6.13;;;23.50;53.10;;;;;;5031316;28;20733;-39
2021/04/01 11:49:49;;;;;;;9.50;5.88;;;23.60;53.10;;;;;;5031394;28;20204;-39
2021/04/01 11:52:17;;;;;;;14.60;6.95;;;23.50;52.90;;;;;;5031252;28;20651;-40
2021/04/01 11:54:45;;;;;;;8.77;5.72;;;23.50;53.00;;;;;;5031245;28;20304;-40
2021/04/01 11:57:20;;;;;;;6.97;4.95;;;23.40;53.00;;;;;;5031835;28;20266;-40
2021/04/01 11:59:55;;;;;;;6.63;4.80;;;23.30;52.80;;;;;;5034472;28;20232;-40
2021/04/01 12:02:25;;;;;;;7.80;5.15;;;23.30;52.30;;;;;;5036765;28;20216;-41
2021/04/01 12:05:00;;;;;;;11.32;4.75;;;23.20;52.30;;;;;;5035634;28;20303;-40
2021/04/01 12:07:29;;;;;;;7.35;4.20;;;23.10;52.20;;;;;;5037087;28;20204;-40
2021/04/01 12:10:12;;;;;;;6.93;3.97;;;23.10;51.80;;;;;;5034777;28;20208;-40
2021/04/01 12:12:39;;;;;;;8.88;5.13;;;23.20;51.40;;;;;;5034351;28;20299;-40
2021/04/01 12:15:08;;;;;;;9.30;5.10;;;23.20;51.60;;;;;;5034079;28;20233;-40
2021/04/01 12:17:38;;;;;;;6.35;4.90;;;23.30;51.50;;;;;;5034178;28;20311;-40
2021/04/01 12:20:11;;;;;;;9.07;5.82;;;23.20;51.50;;;;;;5034241;28;20219;-40
2021/04/01 12:22:41;;;;;;;8.98;5.40;;;23.20;51.50;;;;;;5034322;28;20326;-40
2021/04/01 12:25:11;;;;;;;10.43;5.40;;;23.30;51.60;;;;;;5034278;28;20236;-40
2021/04/01 12:27:38;;;;;;;9.25;5.18;;;23.40;51.60;;;;;;5034027;28;20291;-40
2021/04/01 12:30:19;;;;;;;7.55;5.35;;;23.50;51.40;;;;;;5034347;28;20639;-41
2021/04/01 12:32:47;;;;;;;7.03;4.75;;;23.60;50.90;;;;;;5034805;28;20236;-39
2021/04/01 12:35:16;;;;;;;8.45;5.05;;;23.60;50.90;;;;;;5034618;28;20275;-39
2021/04/01 12:37:44;;;;;;;8.68;5.80;;;23.80;50.40;;;;;;5034984;28;20220;-43
2021/04/01 12:40:14;;;;;;;11.43;5.85;;;24.00;50.30;;;;;;5035094;28;20209;-41
2021/04/01 12:42:42;;;;;;;8.52;5.88;;;24.00;50.10;;;;;;5035325;28;20209;-42
2021/04/01 12:45:22;;;;;;;9.57;5.55;;;24.10;50.20;;;;;;5035084;28;20212;-42
2021/04/01 12:47:52;;;;;;;7.55;4.82;;;24.10;49.80;;;;;;5034951;28;20671;-43
2021/04/01 12:50:20;;;;;;;6.13;5.25;;;24.10;49.80;;;;;;5034849;28;20209;-43
2021/04/01 12:52:51;;;;;;;10.70;5.60;;;24.20;49.60;;;;;;5034928;28;20300;-43
2021/04/01 12:55:33;;;;;;;7.53;5.47;;;24.10;49.50;;;;;;5034965;28;20630;-39
2021/04/01 12:58:00;;;;;;;11.77;4.80;;;24.00;49.40;;;;;;5036245;28;20213;-39
2021/04/01 13:00:40;;;;;;;6.30;4.63;;;23.80;49.60;;;;;;5034500;28;20295;-39
2021/04/01 13:03:07;;;;;;;11.68;5.78;;;23.60;49.70;;;;;;5034546;28;20709;-39
2021/04/01 13:05:37;;;;;;;6.85;5.10;;;23.50;50.00;;;;;;5034226;28;20205;-40
2021/04/01 13:10:47;;;;;;;6.63;4.32;;;23.40;49.50;;;;;;5031379;28;20215;-40
2021/04/01 13:13:14;;;;;;;7.53;3.83;;;23.30;49.40;;;;;;5033502;28;20266;-39
2021/04/01 13:15:42;;;;;;;9.27;4.63;;;23.30;49.30;;;;;;5033304;28;20263;-39
2021/04/01 13:18:10;;;;;;;9.13;4.93;;;23.30;49.40;;;;;;5033097;28;20231;-39
2021/04/01 13:20:37;;;;;;;6.70;4.80;;;23.30;49.40;;;;;;5033413;28;20303;-39
2021/04/01 13:23:29;;;;;;;6.15;3.95;;;23.30;49.60;;;;;;5032927;28;20732;-39
2021/04/01 13:25:57;;;;;;;7.45;4.53;;;23.20;49.50;;;;;;5033431;28;20375;-39
2021/04/01 13:28:25;;;;;;;8.35;4.32;;;23.10;49.30;;;;;;5032976;28;20211;-39
2021/04/01 13:31:00;;;;;;;5.95;3.97;;;23.10;49.90;;;;;;5033225;28;20230;-39
2021/04/01 13:33:41;;;;;;;6.85;4.10;;;23.10;49.10;;;;;;5032892;28;20307;-39
2021/04/01 13:36:18;;;;;;;6.15;4.22;;;23.00;49.10;;;;;;5033112;28;20768;-39
2021/04/01 13:38:45;;;;;;;6.35;4.68;;;23.00;49.30;;;;;;5032644;28;20295;-39
2021/04/01 13:41:18;;;;;;;7.97;5.35;;;23.00;49.20;;;;;;5032624;28;20209;-39
2021/04/01 13:43:45;;;;;;;8.00;4.70;;;23.20;49.20;;;;;;5032729;28;20660;-39
2021/04/01 13:46:15;;;;;;;5.00;4.03;;;23.30;49.10;;;;;;5032666;28;20215;-39
2021/04/01 13:48:42;;;;;;;5.45;4.15;;;23.50;48.80;;;;;;5032716;28;20287;-39
2021/04/01 13:51:12;;;;;;;4.82;4.30;;;23.60;48.50;;;;;;5032518;28;20687;-39
2021/04/01 13:54:11;;;;;;;11.00;4.53;;;23.60;48.20;;;;;;5032373;28;20223;-39
2021/04/01 13:56:53;;;;;;;7.32;4.50;;;23.60;48.00;;;;;;5032685;28;20303;-39
2021/04/01 13:59:28;;;;;;;13.85;4.82;;;23.60;48.00;;;;;;5032587;28;20265;-39